Time;durP1;ratioP1;P1;durP2;ratioP2;P2;SDS_P1;SDS_P2;PMS_P1;PMS_P2;Temp;Humidity;BMP_temperature;BMP_pressure;BME280_temperature;BME280_humidity;BME280_pressure;Samples;Min_cycle;Max_cycle;Signal;HPM_P1;HPM_P2
2022/04/26 03:36:10;;;;;;;10.10;5.32;;;;;;;7.13;100.00;101559.25;5017345;28;20064;-40
2022/04/26 03:38:42;;;;;;;10.45;4.88;;;;;;;7.08;100.00;101559.59;5002894;28;20050;-41
2022/04/26 03:41:07;;;;;;;9.25;4.70;;;;;;;7.09;100.00;101563.09;5005082;28;20074;-41
2022/04/26 03:43:32;;;;;;;8.48;4.60;;;;;;;7.12;100.00;101562.84;4997795;28;20034;-41
2022/04/26 03:45:58;;;;;;;9.52;4.55;;;;;;;7.10;100.00;101562.13;4998181;28;20362;-41
2022/04/26 03:48:23;;;;;;;9.88;4.60;;;;;;;7.12;100.00;101565.50;4995939;28;20034;-41
2022/04/26 03:50:48;;;;;;;7.13;4.43;;;;;;;7.15;100.00;101569.75;4997603;28;20408;-41
2022/04/26 03:53:14;;;;;;;8.40;4.90;;;;;;;7.13;100.00;101564.56;4997521;28;20173;-42
2022/04/26 03:55:39;;;;;;;8.23;4.50;;;;;;;7.15;100.00;101575.06;4997143;28;20021;-42
2022/04/26 03:58:05;;;;;;;8.18;4.75;;;;;;;7.14;100.00;101568.03;5000219;28;20153;-43
2022/04/26 04:00:30;;;;;;;7.72;4.70;;;;;;;7.16;100.00;101574.94;4997840;28;20140;-44
2022/04/26 04:02:56;;;;;;;9.27;4.50;;;;;;;7.15;100.00;101569.75;5009384;28;20663;-45
2022/04/26 04:05:22;;;;;;;7.72;4.85;;;;;;;7.16;100.00;101582.03;5016112;28;20162;-42
2022/04/26 04:07:47;;;;;;;9.77;5.00;;;;;;;7.14;100.00;101574.19;5004697;28;20084;-43
2022/04/26 04:10:12;;;;;;;9.40;5.03;;;;;;;7.16;100.00;101579.38;4997980;28;20024;-42
2022/04/26 04:12:38;;;;;;;7.63;5.05;;;;;;;7.14;100.00;101576.00;5001509;28;20053;-42
2022/04/26 04:15:03;;;;;;;10.15;4.47;;;;;;;7.14;100.00;101576.84;5016210;28;20103;-42
2022/04/26 04:17:28;;;;;;;8.32;5.30;;;;;;;7.14;100.00;101583.97;5017607;28;20357;-45
2022/04/26 04:19:54;;;;;;;9.98;4.75;;;;;;;7.15;100.00;101594.50;5015418;28;20040;-44
2022/04/26 04:22:19;;;;;;;15.50;5.03;;;;;;;7.14;100.00;101582.16;4999428;28;20064;-44
2022/04/26 04:24:44;;;;;;;8.55;4.65;;;;;;;7.18;100.00;101594.25;5011096;28;20088;-45
2022/04/26 04:27:10;;;;;;;9.32;5.15;;;;;;;7.19;100.00;101605.72;5033967;28;20040;-42
2022/04/26 04:29:35;;;;;;;8.23;5.15;;;;;;;7.21;100.00;101601.13;5037074;28;20094;-44
2022/04/26 04:32:01;;;;;;;14.18;5.40;;;;;;;7.21;100.00;101604.66;5038036;28;20048;-43
2022/04/26 04:34:26;;;;;;;12.82;5.32;;;;;;;7.24;100.00;101609.69;5035068;28;20055;-43
2022/04/26 04:36:52;;;;;;;10.45;4.97;;;;;;;7.24;100.00;101608.84;5010399;28;20052;-42
2022/04/26 04:39:19;;;;;;;9.75;5.22;;;;;;;7.24;100.00;101608.84;5020438;28;20041;-41
2022/04/26 04:41:46;;;;;;;8.55;4.53;;;;;;;7.22;100.00;101605.50;5015024;28;20040;-43
2022/04/26 04:44:11;;;;;;;8.95;5.03;;;;;;;7.23;100.00;101616.00;5015310;28;20562;-43
2022/04/26 04:46:36;;;;;;;8.00;5.18;;;;;;;7.22;100.00;101613.47;5017954;28;20052;-42
2022/04/26 04:49:02;;;;;;;13.38;5.32;;;;;;;7.22;100.00;101616.13;5007368;28;20617;-42
2022/04/26 04:51:28;;;;;;;9.55;5.38;;;;;;;7.22;100.00;101618.78;5018302;28;20507;-42
2022/04/26 04:53:53;;;;;;;14.82;5.30;;;;;;;7.22;100.00;101621.44;5018876;28;20041;-42
2022/04/26 04:56:18;;;;;;;11.73;5.10;;;;;;;7.22;100.00;101632.06;5037270;28;20120;-44
2022/04/26 04:58:44;;;;;;;9.65;5.30;;;;;;;7.18;100.00;101622.63;5027937;28;20038;-43
2022/04/26 05:01:09;;;;;;;9.95;5.38;;;;;;;7.22;100.00;101634.72;5014070;28;20148;-45
2022/04/26 05:03:34;;;;;;;12.88;5.85;;;;;;;7.22;100.00;101635.53;5025115;28;20021;-45
2022/04/26 05:05:59;;;;;;;9.88;4.82;;;;;;;7.20;100.00;101642.78;5026292;28;20533;-42
2022/04/26 05:08:25;;;;;;;8.75;5.38;;;;;;;7.20;100.00;101645.44;5028765;28;20083;-44
2022/04/26 05:10:50;;;;;;;8.02;5.50;;;;;;;7.21;100.00;101644.50;5026332;28;20035;-43
2022/04/26 05:13:15;;;;;;;10.68;5.00;;;;;;;7.24;100.00;101652.22;5027768;28;20028;-44
2022/04/26 05:15:44;;;;;;;10.90;5.43;;;;;;;7.24;100.00;101651.38;5027380;28;20029;-43
2022/04/26 05:18:10;;;;;;;12.13;5.35;;;;;;;7.24;100.00;101668.16;5029867;28;20025;-42
2022/04/26 05:20:35;;;;;;;12.82;5.60;;;;;;;7.24;100.00;101654.88;5019656;28;20108;-43
2022/04/26 05:25:45;;;;;;;9.15;5.47;;;;;;;7.26;100.00;101662.72;5030926;28;20117;-44
2022/04/26 05:28:11;;;;;;;12.02;5.90;;;;;;;7.29;100.00;101659.81;5034124;28;20024;-44
2022/04/26 05:30:36;;;;;;;15.40;6.20;;;;;;;7.27;100.00;101669.75;5027084;28;20017;-45
2022/04/26 05:33:01;;;;;;;13.60;6.10;;;;;;;7.29;100.00;101667.78;5030396;28;20491;-42
2022/04/26 05:35:27;;;;;;;7.03;5.53;;;;;;;7.29;100.00;101667.78;5033617;28;20032;-44
2022/04/26 05:37:52;;;;;;;11.80;6.10;;;;;;;7.34;100.00;101668.28;5034796;28;20241;-42
2022/04/26 05:40:18;;;;;;;13.40;5.93;;;;;;;7.35;100.00;101669.13;5032634;28;20650;-45
2022/04/26 05:42:43;;;;;;;12.18;6.57;;;;;;;7.38;100.00;101672.41;5032074;28;20035;-43
2022/04/26 05:45:08;;;;;;;12.40;6.43;;;;;;;7.40;100.00;101666.94;5031373;28;20028;-44
2022/04/26 05:47:34;;;;;;;14.00;6.70;;;;;;;7.45;100.00;101664.78;5021024;28;20026;-43
2022/04/26 05:49:59;;;;;;;14.05;6.28;;;;;;;7.45;100.00;101678.06;5021365;28;20032;-42
2022/04/26 05:52:24;;;;;;;11.13;6.22;;;;;;;7.46;100.00;101677.09;5023884;28;20029;-42
2022/04/26 05:54:51;;;;;;;16.65;6.68;;;;;;;7.50;100.00;101675.06;5030731;28;20029;-43
2022/04/26 05:57:16;;;;;;;9.85;6.55;;;;;;;7.48;100.00;101680.50;5028340;28;20044;-45
2022/04/26 05:59:41;;;;;;;14.35;6.70;;;;;;;7.50;100.00;101681.22;5027691;28;20063;-43
2022/04/26 06:02:07;;;;;;;15.88;6.75;;;;;;;7.50;100.00;101678.56;5029886;28;20086;-42
2022/04/26 06:04:32;;;;;;;11.45;6.55;;;;;;;7.59;100.00;101682.31;5031481;28;20028;-44
2022/04/26 06:06:57;;;;;;;11.13;6.65;;;;;;;7.63;100.00;101686.41;5028827;28;20037;-44
2022/04/26 06:09:23;;;;;;;13.70;7.40;;;;;;;7.63;100.00;101689.91;5024055;28;20021;-42
2022/04/26 06:11:48;;;;;;;11.52;6.38;;;;;;;7.63;100.00;101689.06;5024551;28;20037;-54
2022/04/26 06:14:14;;;;;;;16.25;7.57;;;;;;;7.62;100.00;101690.03;5028727;28;20032;-45
2022/04/26 06:16:39;;;;;;;11.68;7.35;;;;;;;7.61;100.00;101697.16;5031922;28;20063;-47
2022/04/26 06:19:05;;;;;;;14.30;7.90;;;;;;;7.66;100.00;101697.66;5029783;28;20089;-43
2022/04/26 06:21:30;;;;;;;13.23;7.53;;;;;;;7.72;100.00;101698.13;5033411;28;20029;-42
2022/04/26 06:23:55;;;;;;;20.15;8.40;;;;;;;7.72;100.00;101706.97;5029641;28;20087;-43
2022/04/26 06:26:21;;;;;;;15.02;7.82;;;;;;;7.73;100.00;101708.66;5031771;28;20033;-45
2022/04/26 06:28:46;;;;;;;15.50;8.20;;;;;;;7.77;100.00;101710.13;5027976;28;20028;-42
2022/04/26 06:31:11;;;;;;;20.50;8.93;;;;;;;7.80;100.00;101701.03;5024661;28;20025;-43
2022/04/26 06:33:37;;;;;;;17.50;8.65;;;;;;;7.85;100.00;101714.81;5030339;28;20051;-42
2022/04/26 06:36:02;;;;;;;17.55;8.65;;;;;;;7.94;100.00;101702.59;5029168;28;20057;-42
2022/04/26 06:38:28;;;;;;;15.95;8.93;;;;;;;8.04;100.00;101722.16;5023813;28;20473;-42
2022/04/26 06:40:54;;;;;;;16.20;8.18;;;;;;;8.15;100.00;101723.97;5031133;28;20033;-46
2022/04/26 06:43:19;;;;;;;17.73;8.35;;;;;;;8.22;100.00;101728.66;5023938;28;20029;-42
2022/04/26 06:45:48;;;;;;;16.38;8.52;;;;;;;8.31;100.00;101728.91;5028350;28;20585;-43
2022/04/26 06:48:14;;;;;;;19.17;8.48;;;;;;;8.35;100.00;101730.31;5034693;28;20025;-44
2022/04/26 06:50:41;;;;;;;12.80;8.35;;;;;;;8.40;100.00;101722.81;5032690;28;20248;-41
2022/04/26 06:53:06;;;;;;;15.30;8.68;;;;;;;8.54;100.00;101725.25;5033326;28;20099;-43
2022/04/26 06:55:31;;;;;;;17.02;8.63;;;;;;;8.69;100.00;101733.78;5035387;28;20467;-42
2022/04/26 06:57:57;;;;;;;13.90;8.13;;;;;;;8.76;100.00;101726.13;5032850;28;20033;-43
2022/04/26 07:00:22;;;;;;;16.60;8.60;;;;;;;8.80;100.00;101732.03;5034039;28;20376;-43
2022/04/26 07:02:48;;;;;;;16.23;8.90;;;;;;;8.89;100.00;101737.47;5035041;28;20036;-45
2022/04/26 07:05:14;;;;;;;15.23;8.55;;;;;;;8.97;100.00;101736.81;5028341;28;20180;-42
2022/04/26 07:07:40;;;;;;;11.60;7.55;;;;;;;8.99;100.00;101744.66;5034729;28;20028;-42
2022/04/26 07:10:07;;;;;;;14.40;7.75;;;;;;;8.95;100.00;101730.75;5034127;28;20013;-45
2022/04/26 07:12:32;;;;;;;17.38;8.45;;;;;;;8.96;100.00;101738.63;5022945;28;20030;-43
2022/04/26 07:14:58;;;;;;;15.35;7.95;;;;;;;9.06;100.00;101737.84;5031239;28;20017;-43
2022/04/26 07:17:23;;;;;;;17.85;7.72;;;;;;;9.17;100.00;101744.94;5035134;28;20024;-45
2022/04/26 07:19:49;;;;;;;13.32;8.00;;;;;;;9.19;100.00;101748.31;5036071;28;20069;-43
2022/04/26 07:22:14;;;;;;;15.25;8.02;;;;;;;9.20;100.00;101750.00;5024919;28;20032;-43
2022/04/26 07:24:40;;;;;;;16.67;7.45;;;;;;;9.22;100.00;101753.41;5035069;28;20434;-41
2022/04/26 07:27:05;;;;;;;17.73;7.65;;;;;;;9.20;100.00;101750.88;5038097;28;20025;-44
2022/04/26 07:29:30;;;;;;;17.42;7.45;;;;;;;9.25;100.00;101751.31;5035798;28;20032;-42
2022/04/26 07:31:56;;;;;;;12.50;7.32;;;;;;;9.30;100.00;101754.44;5032235;28;20187;-43
2022/04/26 07:34:21;;;;;;;19.40;7.20;;;;;;;9.27;100.00;101760.03;5023965;28;20387;-43
2022/04/26 07:36:52;;;;;;;16.63;7.07;;;;;;;9.20;100.00;101752.66;5019373;28;20124;-43
2022/04/26 07:39:18;;;;;;;16.65;7.85;;;;;;;9.21;100.00;101767.69;5012873;28;20073;-44
2022/04/26 07:41:49;;;;;;;12.00;7.10;;;;;;;9.23;100.00;101761.28;5008477;28;20300;-44
2022/04/26 07:44:16;;;;;;;10.82;6.57;;;;;;;9.30;100.00;101772.22;5015054;28;20075;-45
2022/04/26 07:46:44;;;;;;;14.52;7.35;;;;;;;9.36;100.00;101776.22;5030653;28;20443;-46
2022/04/26 07:49:10;;;;;;;19.30;6.95;;;;;;;9.40;100.00;101772.31;5017064;28;20501;-43
2022/04/26 07:51:35;;;;;;;15.82;7.20;;;;;;;9.43;100.00;101772.88;5020476;28;20029;-43
2022/04/26 07:54:00;;;;;;;15.80;7.20;;;;;;;9.51;100.00;101780.25;5023869;28;20128;-44
2022/04/26 07:56:27;;;;;;;16.88;7.68;;;;;;;9.60;100.00;101774.09;5014318;28;20025;-46
2022/04/26 07:58:53;;;;;;;17.30;6.63;;;;;;;9.69;100.00;101785.81;5016135;28;20080;-43
2022/04/26 08:01:18;;;;;;;12.27;6.60;;;;;;;9.68;100.00;101787.63;5017267;28;20033;-47
2022/04/26 08:03:43;;;;;;;14.77;6.82;;;;;;;9.69;100.00;101780.47;5017555;28;20506;-44
2022/04/26 08:06:09;;;;;;;12.93;6.35;;;;;;;9.63;100.00;101784.53;5032066;28;20558;-41
2022/04/26 08:08:35;;;;;;;11.43;6.07;;;;;;;9.67;100.00;101779.75;5013782;28;20045;-47
2022/04/26 08:11:01;;;;;;;16.92;6.47;;;;;;;9.70;100.00;101790.16;5030982;28;20029;-42
2022/04/26 08:13:27;;;;;;;13.07;6.13;;;;;;;9.76;100.00;101792.31;5013755;28;20029;-43
2022/04/26 08:15:52;;;;;;;11.73;5.65;;;;;;;9.89;100.00;101792.09;5016651;28;20127;-45
2022/04/26 08:18:17;;;;;;;14.63;6.25;;;;;;;10.01;100.00;101800.84;5016412;28;20032;-43
2022/04/26 08:20:44;;;;;;;13.80;5.60;;;;;;;10.15;100.00;101803.19;5016898;28;20107;-46
2022/04/26 08:23:10;;;;;;;13.07;5.25;;;;;;;10.27;99.70;101812.75;5017221;28;20033;-42
2022/04/26 08:28:19;;;;;;;13.32;5.28;;;;;;;10.47;97.14;101814.69;5030981;28;20101;-43
2022/04/26 08:30:44;;;;;;;14.68;5.60;;;;;;;10.73;100.00;101815.03;5023443;28;20021;-47
2022/04/26 08:33:10;;;;;;;13.40;5.13;;;;;;;11.00;94.64;101811.69;5034040;28;20025;-43
2022/04/26 08:35:35;;;;;;;11.23;4.68;;;;;;;11.11;93.43;101810.69;5034372;28;20056;-45
2022/04/26 08:38:01;;;;;;;14.88;5.03;;;;;;;11.32;95.79;101810.53;5034409;28;20548;-44
2022/04/26 08:40:26;;;;;;;10.25;4.90;;;;;;;11.39;93.18;101809.81;5028674;28;20053;-43
2022/04/26 08:42:52;;;;;;;8.68;4.88;;;;;;;11.36;93.11;101820.81;5030572;28;20079;-42
2022/04/26 08:45:21;;;;;;;11.90;4.35;;;;;;;11.30;91.56;101825.88;5034897;28;20025;-43
2022/04/26 08:53:22;;;;;;;8.77;4.45;;;;;;;11.44;91.84;101820.09;5029348;28;20037;-45
2022/04/26 08:55:50;;;;;;;12.93;3.92;;;;;;;11.56;88.74;101824.31;5034693;28;20059;-45
2022/04/26 08:58:18;;;;;;;13.65;4.07;;;;;;;11.54;85.53;101828.09;5033247;28;20433;-42
2022/04/26 09:01:19;;;;;;;16.70;3.80;;;;;;;11.60;85.64;101824.84;5035677;28;20047;-43
2022/04/26 09:03:56;;;;;;;11.75;3.90;;;;;;;11.70;85.80;101831.03;5009241;28;20228;-43
2022/04/26 09:06:30;;;;;;;7.97;3.55;;;;;;;11.74;83.09;101840.47;5025851;28;20061;-42
2022/04/26 09:09:18;;;;;;;6.40;3.40;;;;;;;11.66;82.87;101840.34;5035002;28;20488;-43
2022/04/26 09:11:44;;;;;;;9.00;3.80;;;;;;;11.72;81.49;101842.44;5034660;28;20029;-42
2022/04/26 09:14:37;;;;;;;8.68;3.72;;;;;;;11.98;80.80;101844.50;5034327;28;20359;-43
2022/04/26 09:17:08;;;;;;;5.30;3.15;;;;;;;12.20;82.52;101840.63;5035496;28;20133;-43
2022/04/26 09:19:52;;;;;;;9.23;3.33;;;;;;;12.31;75.67;101848.47;5034349;28;20025;-42
2022/04/26 09:22:18;;;;;;;8.93;3.22;;;;;;;12.26;75.25;101847.25;5034064;28;20112;-43
2022/04/26 09:25:03;;;;;;;8.82;3.22;;;;;;;12.19;74.76;101846.16;5021806;28;20024;-44
2022/04/26 09:27:29;;;;;;;8.48;3.40;;;;;;;12.37;70.94;101855.06;5030414;28;20025;-42
2022/04/26 09:29:55;;;;;;;6.70;3.35;;;;;;;12.56;71.57;101848.78;5029699;28;20314;-43
2022/04/26 09:32:20;;;;;;;7.90;3.78;;;;;;;12.66;75.00;101838.84;5047210;28;20036;-43
2022/04/26 09:34:46;;;;;;;9.80;4.00;;;;;;;12.95;78.48;101847.69;5033140;28;20029;-44
2022/04/26 09:37:12;;;;;;;11.48;4.03;;;;;;;13.28;81.89;101843.47;5027464;28;20487;-43
2022/04/26 09:39:39;;;;;;;8.25;3.95;;;;;;;13.46;81.07;101859.59;5033708;28;20045;-45
2022/04/26 09:42:05;;;;;;;12.93;3.85;;;;;;;12.94;77.53;101862.94;5033469;28;20438;-44
2022/04/26 09:44:32;;;;;;;8.43;3.40;;;;;;;12.60;79.79;101860.88;5031375;28;20021;-42
2022/04/26 09:46:58;;;;;;;14.63;4.35;;;;;;;12.59;80.62;101866.38;5029347;28;20362;-44
2022/04/26 09:49:25;;;;;;;16.92;3.75;;;;;;;12.73;78.11;101868.59;5032683;28;20031;-44
2022/04/26 09:51:54;;;;;;;8.18;3.60;;;;;;;12.83;76.25;101869.38;5034381;28;20037;-43
2022/04/26 09:54:20;;;;;;;11.13;3.92;;;;;;;12.88;75.89;101861.72;5036208;28;20048;-44
2022/04/26 09:56:47;;;;;;;8.55;3.38;;;;;;;12.77;76.49;101871.81;5029841;28;20496;-43
2022/04/26 09:59:18;;;;;;;12.20;4.15;;;;;;;12.74;74.47;101880.13;5034580;28;20410;-43
2022/04/26 10:01:46;;;;;;;;;;;;;;;12.73;75.03;101883.81;5035456;28;20051;-44
2022/04/26 10:04:16;;;;;;;7.13;3.88;;;;;;;12.90;75.25;101876.78;5024120;28;19948;-43
2022/04/26 10:06:43;;;;;;;8.88;3.80;;;;;;;13.04;74.34;101881.66;5015330;28;20037;-45
2022/04/26 10:09:10;;;;;;;9.25;3.25;;;;;;;13.05;71.25;101883.31;5022927;28;20517;-42
2022/04/26 10:11:36;;;;;;;8.25;3.75;;;;;;;13.14;71.13;101890.47;5035611;28;20032;-43
2022/04/26 10:14:05;;;;;;;7.95;3.45;;;;;;;13.37;71.99;101881.97;5031734;28;20040;-43
2022/04/26 10:16:31;;;;;;;9.48;3.15;;;;;;;13.53;68.63;101890.19;5027346;28;20120;-42
2022/04/26 10:19:12;;;;;;;8.82;3.28;;;;;;;13.66;68.61;101884.41;5035297;28;20178;-44
2022/04/26 10:21:40;;;;;;;7.70;3.53;;;;;;;13.90;67.37;101890.94;5032592;28;20021;-43
2022/04/26 10:24:12;;;;;;;6.45;3.17;;;;;;;14.00;66.54;101886.31;5035619;28;20452;-44
2022/04/26 10:26:37;;;;;;;8.95;3.63;;;;;;;14.11;65.34;101891.44;5038195;28;20044;-42
2022/04/26 10:29:06;;;;;;;9.38;3.67;;;;;;;14.19;64.45;101898.72;5034850;28;20029;-43
2022/04/26 10:31:40;;;;;;;5.95;3.40;;;;;;;14.45;63.87;101900.53;5021138;28;20160;-45
2022/04/26 10:34:16;;;;;;;5.80;2.80;;;;;;;14.69;62.39;101899.81;5020362;28;20026;-45
2022/04/26 10:36:43;;;;;;;13.45;3.13;;;;;;;14.80;60.38;101910.28;5021248;28;20037;-43
2022/04/26 10:39:08;;;;;;;5.93;3.40;;;;;;;14.95;58.83;101904.25;5039134;28;20136;-44
2022/04/26 10:41:35;;;;;;;5.40;3.35;;;;;;;15.11;58.53;101901.63;5021588;28;20413;-44
2022/04/26 10:44:12;;;;;;;6.05;3.38;;;;;;;15.28;62.04;101903.31;5019088;28;20387;-43
2022/04/26 10:46:38;;;;;;;17.02;4.07;;;;;;;15.52;61.52;101907.03;5019770;28;20033;-42
2022/04/26 10:49:26;;;;;;;9.52;3.70;;;;;;;15.51;56.91;101912.59;5023646;28;20028;-44
2022/04/26 10:51:53;;;;;;;8.50;3.95;;;;;;;15.55;55.13;101905.88;5036751;28;20070;-44
2022/04/26 10:54:51;;;;;;;16.35;3.95;;;;;;;15.76;56.28;101905.41;5039169;28;20025;-42
2022/04/26 10:57:21;;;;;;;7.32;3.50;;;;;;;15.67;55.54;101916.13;5038489;28;20020;-43
2022/04/26 10:59:56;;;;;;;9.30;3.90;;;;;;;15.84;56.54;101916.16;5037994;28;20310;-43
2022/04/26 11:02:23;;;;;;;9.90;4.03;;;;;;;15.65;53.65;101912.78;5035846;28;20025;-41
2022/04/26 11:05:05;;;;;;;13.10;3.80;;;;;;;15.72;59.33;101910.25;5033616;28;20039;-44
2022/04/26 11:07:31;;;;;;;11.85;3.88;;;;;;;15.82;55.63;101919.03;5036951;28;20017;-44
2022/04/26 11:09:58;;;;;;;8.60;4.00;;;;;;;16.12;56.00;101923.88;5033938;28;20682;-43
2022/04/26 11:12:25;;;;;;;10.10;4.50;;;;;;;16.30;52.96;101921.81;5034229;28;20483;-44
2022/04/26 11:14:54;;;;;;;8.73;3.50;;;;;;;16.19;50.27;101916.78;5038286;28;20032;-43
2022/04/26 11:17:22;;;;;;;6.20;3.88;;;;;;;16.25;53.71;101920.66;5037737;28;20103;-44
2022/04/26 11:19:55;;;;;;;7.88;3.90;;;;;;;16.62;54.62;101922.72;5030965;28;20091;-42
2022/04/26 11:22:23;;;;;;;5.97;3.55;;;;;;;16.82;51.08;101925.84;5010166;28;20175;-45
2022/04/26 11:30:37;;;;;;;6.18;3.80;;;;;;;17.02;47.21;101915.47;5018437;28;20036;-46
2022/04/26 11:33:05;;;;;;;8.85;3.85;;;;;;;17.01;48.26;101921.06;5018527;28;20630;-43
2022/04/26 11:35:31;;;;;;;9.50;3.63;;;;;;;17.02;47.13;101926.25;5016430;28;20037;-42
2022/04/26 11:38:02;;;;;;;8.77;3.50;;;;;;;16.85;45.30;101920.09;5016904;28;20212;-44
2022/04/26 11:40:29;;;;;;;5.35;3.65;;;;;;;16.62;46.43;101924.59;5004309;28;20088;-42
2022/04/26 11:42:57;;;;;;;7.35;3.08;;;;;;;16.58;45.41;101922.22;5017295;28;20026;-43
2022/04/26 11:45:22;;;;;;;7.85;3.03;;;;;;;16.71;45.40;101918.97;5016995;28;20471;-43
2022/04/26 11:47:49;;;;;;;7.63;3.30;;;;;;;16.79;44.74;101931.59;5019319;28;20119;-46
2022/04/26 11:50:16;;;;;;;5.32;3.20;;;;;;;16.59;45.09;101923.91;5016987;28;20359;-45
2022/04/26 11:52:45;;;;;;;8.40;3.58;;;;;;;16.42;48.23;101925.81;5017637;28;20029;-45
2022/04/26 11:55:25;;;;;;;6.03;3.00;;;;;;;16.72;47.62;101925.22;5012259;28;20030;-45
2022/04/26 11:57:52;;;;;;;4.53;3.03;;;;;;;16.87;42.72;101936.13;5011709;28;20452;-44
2022/04/26 12:00:20;;;;;;;5.90;3.08;;;;;;;17.00;41.66;101932.88;5017082;28;20030;-42
2022/04/26 12:02:50;;;;;;;4.28;2.72;;;;;;;17.06;40.81;101937.56;5017926;28;20029;-44
2022/04/26 12:05:19;;;;;;;10.77;3.30;;;;;;;17.17;44.08;101936.31;5015686;28;20436;-45
2022/04/26 12:07:45;;;;;;;6.85;3.05;;;;;;;17.14;40.62;101938.34;5018444;28;20430;-44
2022/04/26 12:10:32;;;;;;;5.05;3.10;;;;;;;17.34;43.56;101930.63;5017149;28;20061;-43
2022/04/26 12:13:03;;;;;;;6.68;3.22;;;;;;;17.09;41.26;101935.34;5008049;28;20524;-44
2022/04/26 12:15:30;;;;;;;;;;;;;;;17.23;40.83;101938.31;5017635;28;20036;-42
2022/04/26 12:18:03;;;;;;;5.72;3.25;;;;;;;17.19;44.58;101936.97;5018255;28;19974;-43
2022/04/26 12:20:28;;;;;;;5.32;2.80;;;;;;;17.29;42.27;101926.78;5016406;28;20060;-42
2022/04/26 12:22:54;;;;;;;6.32;3.33;;;;;;;17.24;41.82;101924.59;5017094;28;20072;-43
2022/04/26 12:25:19;;;;;;;6.47;3.80;;;;;;;17.08;45.11;101938.22;5007920;28;20029;-44
2022/04/26 12:27:45;;;;;;;8.90;3.85;;;;;;;17.42;45.34;101928.91;5016894;28;20047;-44
2022/04/26 12:30:10;;;;;;;8.88;3.63;;;;;;;17.70;45.38;101932.72;5017349;28;20462;-43
2022/04/26 12:32:40;;;;;;;9.15;3.78;;;;;;;17.93;45.12;101925.63;5017125;28;20045;-43
2022/04/26 12:35:09;;;;;;;8.75;3.25;;;;;;;18.38;44.76;101935.47;5004019;28;20025;-44
2022/04/26 12:37:34;;;;;;;12.13;3.80;;;;;;;18.34;46.12;101938.72;5015621;28;20037;-44
2022/04/26 12:40:08;;;;;;;7.88;3.78;;;;;;;18.29;43.92;101933.88;5016137;28;20041;-44
2022/04/26 12:42:37;;;;;;;8.75;3.85;;;;;;;18.31;45.14;101930.97;5000168;28;20297;-46
2022/04/26 12:45:21;;;;;;;7.05;3.95;;;;;;;18.77;42.95;101928.91;5016662;28;20029;-46
2022/04/26 12:50:51;;;;;;;7.03;3.42;;;;;;;19.75;38.13;101936.66;5009007;28;20487;-43
2022/04/26 12:53:32;;;;;;;8.90;3.50;;;;;;;20.37;37.64;101940.47;4998702;28;20033;-43
2022/04/26 12:56:10;;;;;;;6.80;3.03;;;;;;;21.22;37.71;101932.06;5014342;28;20412;-42
2022/04/26 12:58:47;;;;;;;6.03;3.22;;;;;;;21.75;35.58;101928.59;5016059;28;20052;-43
2022/04/26 13:01:13;;;;;;;9.10;3.17;;;;;;;22.54;35.83;101933.13;5015926;28;21236;-42
2022/04/26 13:03:40;;;;;;;7.75;3.22;;;;;;;22.99;32.11;101932.28;5015631;28;20498;-45
2022/04/26 13:06:07;;;;;;;7.95;3.47;;;;;;;22.78;32.49;101929.91;5015664;28;20388;-46
2022/04/26 13:08:33;;;;;;;7.43;3.35;;;;;;;22.51;32.77;101927.28;5016928;28;20136;-43
2022/04/26 13:10:58;;;;;;;12.32;3.38;;;;;;;21.60;32.79;101931.53;5016415;28;20043;-43
2022/04/26 13:13:24;;;;;;;7.13;3.28;;;;;;;21.48;33.23;101930.47;5015368;28;20473;-42
2022/04/26 13:15:49;;;;;;;7.40;3.40;;;;;;;22.15;33.22;101923.16;5015758;28;20174;-43
2022/04/26 13:18:17;;;;;;;6.35;3.10;;;;;;;21.40;33.61;101934.19;5016230;28;20140;-43
2022/04/26 13:20:46;;;;;;;5.03;3.30;;;;;;;20.60;35.92;101933.91;5015858;28;20352;-44
2022/04/26 13:23:13;;;;;;;6.93;3.22;;;;;;;22.19;35.60;101929.81;5015133;28;20045;-46
2022/04/26 13:25:39;;;;;;;5.90;3.20;;;;;;;23.12;31.77;101930.59;5012615;28;20025;-43
2022/04/26 13:28:05;;;;;;;6.40;3.03;;;;;;;23.13;30.43;101933.09;5015996;28;20030;-44
2022/04/26 13:30:31;;;;;;;6.63;2.83;;;;;;;23.44;31.81;101945.06;5010750;28;20136;-46
2022/04/26 13:32:56;;;;;;;5.00;2.80;;;;;;;23.22;30.39;101930.97;5008394;28;20124;-44
2022/04/26 13:35:22;;;;;;;10.07;3.17;;;;;;;23.72;30.70;101933.72;5006870;28;20060;-45
2022/04/26 13:37:47;;;;;;;4.72;2.70;;;;;;;23.68;30.08;101924.31;5004719;28;20437;-43
2022/04/26 13:40:13;;;;;;;4.00;2.70;;;;;;;23.59;29.86;101933.81;5005923;28;20455;-43
2022/04/26 13:42:38;;;;;;;6.40;2.75;;;;;;;22.99;30.16;101931.47;5005567;28;20021;-44
2022/04/26 13:45:04;;;;;;;6.25;2.90;;;;;;;23.14;30.04;101932.03;5008445;28;20065;-47
2022/04/26 13:47:30;;;;;;;6.63;2.60;;;;;;;24.55;29.25;101928.97;5004795;28;20033;-44
2022/04/26 13:49:56;;;;;;;4.60;2.35;;;;;;;25.14;29.09;101935.56;5008502;28;20397;-43
2022/04/26 13:52:22;;;;;;;6.95;2.17;;;;;;;24.45;28.72;101934.94;5010480;28;20025;-44
2022/04/26 13:54:48;;;;;;;3.38;2.40;;;;;;;24.87;28.39;101932.34;5015173;28;20044;-42
2022/04/26 13:57:14;;;;;;;6.65;2.60;;;;;;;25.54;25.71;101928.66;5014340;28;20083;-44
2022/04/26 13:59:40;;;;;;;4.78;2.63;;;;;;;25.65;25.49;101941.53;5018684;28;20040;-45
2022/04/26 14:02:06;;;;;;;6.07;2.60;;;;;;;23.92;27.95;101935.50;5019657;28;20021;-43
2022/04/26 14:04:32;;;;;;;4.53;2.63;;;;;;;23.23;28.71;101935.34;5017946;28;20116;-45
2022/04/26 14:06:57;;;;;;;6.13;2.30;;;;;;;23.87;29.04;101927.16;5014300;28;20163;-45
2022/04/26 14:09:23;;;;;;;8.07;2.53;;;;;;;24.02;27.16;101939.38;5015294;28;20021;-43
2022/04/26 14:11:48;;;;;;;4.72;2.40;;;;;;;24.93;26.43;101936.91;5018106;28;20017;-46
2022/04/26 14:22:31;;;;;;;4.53;2.65;;;;;;;23.77;28.03;101947.53;5014391;28;20344;-46
2022/04/26 14:24:58;;;;;;;6.25;2.55;;;;;;;22.08;30.50;101942.19;5017991;28;20080;-46
2022/04/26 14:27:24;;;;;;;7.43;2.83;;;;;;;21.90;30.82;101944.72;5017868;28;20056;-46
2022/04/26 14:29:50;;;;;;;5.63;2.53;;;;;;;20.95;31.96;101942.84;5019193;28;20101;-45
2022/04/26 14:32:15;;;;;;;6.25;2.75;;;;;;;20.45;32.80;101943.03;5018898;28;20029;-44
2022/04/26 14:34:41;;;;;;;4.88;2.80;;;;;;;19.83;34.41;101950.06;5018058;28;20029;-43
2022/04/26 14:37:06;;;;;;;4.05;2.75;;;;;;;19.39;35.73;101951.09;5015390;28;20052;-43
2022/04/26 14:39:31;;;;;;;5.45;3.10;;;;;;;18.70;35.99;101951.50;5015447;28;20044;-43
2022/04/26 14:41:57;;;;;;;6.57;3.05;;;;;;;18.76;36.61;101942.63;5017674;28;20767;-44
2022/04/26 14:44:22;;;;;;;8.07;2.80;;;;;;;18.77;37.29;101947.00;5019366;28;20352;-43
2022/04/26 14:46:47;;;;;;;6.35;3.25;;;;;;;18.60;37.94;101947.22;5010728;28;20340;-43
2022/04/26 14:49:13;;;;;;;7.28;2.83;;;;;;;18.32;37.47;101935.38;4999589;28;20024;-42
2022/04/26 14:51:38;;;;;;;7.88;2.80;;;;;;;17.68;37.33;101945.56;4999848;28;20032;-41
2022/04/26 14:54:03;;;;;;;8.52;3.10;;;;;;;17.33;38.75;101955.13;4999768;28;20468;-42
2022/04/26 14:56:28;;;;;;;5.63;2.80;;;;;;;17.41;39.45;101957.72;4999070;28;20103;-44
2022/04/26 14:58:54;;;;;;;9.60;2.95;;;;;;;17.35;38.73;101950.38;5005195;28;20026;-42
2022/04/26 15:01:20;;;;;;;9.23;3.00;;;;;;;17.54;39.89;101965.25;5010412;28;20123;-42
2022/04/26 15:03:45;;;;;;;13.32;2.78;;;;;;;18.10;37.06;101948.78;4999641;28;20032;-40
2022/04/26 15:06:11;;;;;;;10.30;2.97;;;;;;;19.60;36.19;101954.84;5002568;28;20375;-43
2022/04/26 15:11:20;;;;;;;2.92;2.10;;;;;;;19.52;33.21;101958.53;5015567;28;20048;-42
2022/04/26 15:16:43;;;;;;;6.63;2.30;;;;;;;20.76;32.54;101954.47;5018088;28;20547;-42
2022/04/26 15:19:11;;;;;;;6.03;2.40;;;;;;;21.14;30.26;101940.41;5017652;28;20032;-42
2022/04/26 15:21:37;;;;;;;5.82;2.28;;;;;;;21.64;29.59;101946.41;5018025;28;20052;-47
2022/04/26 15:24:02;;;;;;;4.25;2.25;;;;;;;21.18;30.83;101950.66;5018422;28;20484;-41
2022/04/26 15:26:28;;;;;;;4.88;2.20;;;;;;;21.13;30.21;101953.16;5018075;28;20107;-44
2022/04/26 15:28:55;;;;;;;6.97;2.25;;;;;;;21.00;31.05;101947.69;5013507;28;20044;-44
2022/04/26 15:31:20;;;;;;;3.55;2.20;;;;;;;20.66;30.51;101947.53;5015266;28;20029;-44